This is the latest recevied weather packets stored in our database for station/object YO8RXT-3. If no packets are shown the sender has not sent any weather packets the latest 10 day(s).
| Time | Temp. | Humidity | Pressure | Rain* | Wind** | Luminosity | Snow |
|---|---|---|---|---|---|---|---|
| 1777928703 | 17.22° C | 39% | 1015 hPa | - | - | - | - |
| 1777926904 | 17.22° C | 39% | 1015 hPa | - | - | - | - |
| 1777925102 | 17.78° C | 37% | 1015 hPa | - | - | - | - |
| 1777923302 | 17.78° C | 40% | 1015 hPa | - | - | - | - |
| 1777921502 | 17.78° C | 40% | 1015 hPa | - | - | - | - |
| 1777919702 | 21.11° C | 33% | 1014 hPa | - | - | - | - |
| 1777917902 | 21.11° C | 33% | 1014 hPa | - | - | - | - |
| 1777916103 | 22.22° C | 31% | 1014 hPa | - | - | - | - |
| 1777914303 | 22.22° C | 33% | 1014 hPa | - | - | - | - |
| 1777912503 | 22.78° C | 31% | 1014 hPa | - | - | - | - |
| 1777910703 | 23.89° C | 27% | 1014 hPa | - | - | - | - |
| 1777908902 | 23.89° C | 27% | 1014 hPa | - | - | - | - |
| 1777907103 | 23.89° C | 27% | 1014 hPa | - | - | - | - |
| 1777905303 | 23.89° C | 27% | 1014 hPa | - | - | - | - |
| 1777903505 | 25° C | 26% | 1014 hPa | - | - | - | - |
| 1777901703 | 25° C | 28% | 1014 hPa | - | - | - | - |
| 1777899903 | 25° C | 26% | 1014 hPa | - | - | - | - |
| 1777898102 | 23.89° C | 29% | 1014 hPa | - | - | - | - |
| 1777896303 | 23.89° C | - | - | - | - | - | - |
| 1777894502 | 22.78° C | 33% | 1015 hPa | - | - | - | - |
| 1777892703 | 22.78° C | 31% | 1015 hPa | - | - | - | - |
| 1777890903 | 22.78° C | 36% | 1016 hPa | - | - | - | - |
| 1777889103 | 22.22° C | 36% | 1016 hPa | - | - | - | - |
| 1777887303 | 20° C | 43% | 1016 hPa | - | - | - | - |
| 1777885502 | 20° C | 43% | 1016 hPa | - | - | - | - |
* Rain since midnight (hover to see other rain measurements)
** Current wind speed in m/s (hover to see current wind gust speed)